Aérodrome :
LOGIN :

S'inscrire | Disclaimer

   EN    FR    IT 

 










Légende :    VFR   VFR Marginal   IFR   IFR Intensif   IFR Très Intensif
Visi : 
Plafond : 
>= 8 km
>= 3000ft
5 à 8 km
1000 à 3000 ft
1500m à 5 km
500 à 1000 ft
800 à 1500m
200 à 500 ft
< 800m
< 200 ft
Symboles :   Orages  Brouillard  Fortes neiges  Fortes précipitations  Vent > 20 kt
SIGMETs :   Divers  Orages  Givrage  Turbulence  Onde Orograph.  Cendres Volcan.







- Altitude de l'aérodrome : 117 ft
- Code IATA : NWI
- Voir les cartes d'approche


EGSH - Norwich

DERNIER METAR :
  • 190720Z 19004KT 6000 BKN028 06/05 Q1025 TEMPO 4000 BR

METARs EXPIRÉS :
  • 190650Z 19004KT 6000 SCT025 BKN030 05/04 Q1025 TEMPO 4000 BR
  • 190620Z 19003KT 8000 SCT025 BKN030 05/04 Q1025 NOSIG
  • 190550Z 21004KT 9999 SCT017 BKN024 05/04 Q1025 NOSIG
  • 190520Z AUTO 19004KT 9999 BKN016/// BKN035/// 04/03 Q1025
  • 190450Z AUTO 19004KT 9999 BKN022/// OVC037/// 04/03 Q1025

TAF AMD TAF EGSH
Valide du 19 à 06h jusqu'au 19 à 15h UTC


190655Z 1906/1915 22006KT 8000 FEW012 SCT022
TEMPO 1906/1909 6000
PROB30
TEMPO 1906/1909 4000 BR
BECMG 1909/1911 9999
PROB30
TEMPO 1909/1911 BKN008
ATIS : +44 1603 420 640
Pas de NOTAMs connus pour ce terrain.



MET'MAP, la Météo Aéronautique d'un coup d'oeil ! - Copyright ORBIFLY Décembre 2007 - Disclaimer

ORBIFLY MET'MAP TEAM :

Programmation & Développement : Alexandra Zaïnal
Conception & Développement : Baudouin d'Aumeries
Co-Programmation & Développement : Marc-Olivier Méhu
Soutien technique & logistique : Manuel Goepfert

Contact : metmap@orbifly.com




SOURCES & CREDITS :

   NOAA